Time;durP1;ratioP1;P1;durP2;ratioP2;P2;SDS_P1;SDS_P2;PMS_P1;PMS_P2;Temp;Humidity;BMP_temperature;BMP_pressure;BME280_temperature;BME280_humidity;BME280_pressure;Samples;Min_cycle;Max_cycle;Signal;HPM_P1;HPM_P2
2023/01/09 00:02:54;;;;;;;3.20;1.10;;;;;;;17.35;62.62;95012.59;10374676;28;20402;-24
2023/01/09 00:07:54;;;;;;;3.63;1.57;;;;;;;17.37;62.33;95004.97;10382142;28;20100;-25
2023/01/09 00:12:54;;;;;;;3.77;1.30;;;;;;;17.34;62.44;94998.25;10400199;28;20323;-25
2023/01/09 00:17:55;;;;;;;2.10;1.20;;;;;;;17.35;62.48;95011.75;10383631;28;20030;-26
2023/01/09 00:22:55;;;;;;;1.67;1.00;;;;;;;17.35;62.67;94996.56;10384063;28;20033;-27
2023/01/09 00:27:55;;;;;;;1.63;1.17;;;;;;;17.35;62.83;95004.16;10386071;28;20078;-26
2023/01/09 00:32:56;;;;;;;3.00;1.03;;;;;;;17.38;61.82;95011.72;10382467;28;20417;-26
2023/01/09 00:37:56;;;;;;;3.17;1.77;;;;;;;17.42;62.45;95008.25;10366349;28;20308;-26
2023/01/09 00:42:57;;;;;;;1.50;0.70;;;;;;;17.44;62.00;95001.44;10379334;28;20018;-26
2023/01/09 00:48:05;;;;;;;2.67;1.17;;;;;;;17.40;62.30;94994.81;10372677;28;20025;-25
2023/01/09 00:53:14;;;;;;;2.83;1.17;;;;;;;17.33;62.16;94993.25;10382745;28;20030;-25
2023/01/09 00:58:15;;;;;;;2.80;1.20;;;;;;;17.34;62.67;94994.91;10378503;28;20025;-25
2023/01/09 01:03:15;;;;;;;2.78;0.85;;;;;;;17.35;62.62;95001.63;10373131;28;20032;-26
2023/01/09 01:08:17;;;;;;;3.50;1.37;;;;;;;17.35;62.64;95009.22;10378191;28;20068;-26
2023/01/09 01:13:18;;;;;;;2.00;1.25;;;;;;;17.33;62.76;95013.50;10375136;28;20101;-26
2023/01/09 01:18:18;;;;;;;1.10;0.90;;;;;;;17.34;62.54;95021.03;10388130;28;20076;-25
2023/01/09 01:23:19;;;;;;;2.00;1.00;;;;;;;17.33;62.70;95028.66;10362593;28;20030;-26
2023/01/09 01:28:19;;;;;;;1.53;1.10;;;;;;;17.32;62.44;95017.72;10383182;28;20299;-25
2023/01/09 01:33:19;;;;;;;2.00;1.20;;;;;;;17.33;62.45;95019.38;10373867;28;20034;-26
2023/01/09 01:38:20;;;;;;;3.00;1.73;;;;;;;17.34;62.51;95012.63;10361936;28;20030;-25
2023/01/09 01:43:20;;;;;;;1.70;1.20;;;;;;;17.40;62.47;95010.81;10368071;28;20034;-26
2023/01/09 01:48:28;;;;;;;7.77;1.30;;;;;;;17.41;62.16;95032.72;10373762;28;20033;-26
2023/01/09 01:53:39;;;;;;;1.67;0.77;;;;;;;17.39;62.06;95033.59;10387698;28;20296;-25
2023/01/09 01:58:54;;;;;;;2.10;1.02;;;;;;;17.36;62.53;95056.44;10364459;28;20034;-25
2023/01/09 02:03:58;;;;;;;3.38;0.85;;;;;;;17.35;62.24;95039.56;10367929;28;20041;-26
2023/01/09 02:08:59;;;;;;;1.80;1.08;;;;;;;17.33;62.33;95057.31;10363433;28;20413;-25
2023/01/09 02:14:00;;;;;;;2.03;1.05;;;;;;;17.32;62.24;95057.34;10360142;28;20045;-27
2023/01/09 02:19:16;;;;;;;1.23;0.90;;;;;;;17.34;62.56;95070.78;10385010;28;20490;-26
2023/01/09 02:24:22;;;;;;;0.95;0.73;;;;;;;17.34;62.28;95065.75;10378109;28;20061;-26
2023/01/09 02:29:58;;;;;;;1.85;0.90;;;;;;;17.34;61.98;95088.50;10370713;28;20033;-25
2023/01/09 02:35:28;;;;;;;2.70;1.15;;;;;;;17.33;62.45;95099.50;10365016;28;20116;-26
2023/01/09 02:40:45;;;;;;;1.38;0.80;;;;;;;17.32;62.47;95102.88;10376194;28;20119;-25
2023/01/09 02:45:46;;;;;;;2.13;1.10;;;;;;;17.34;62.12;95126.44;10393875;28;20044;-25
2023/01/09 02:51:20;;;;;;;1.90;1.00;;;;;;;17.41;62.01;95148.25;10364166;28;20040;-26
2023/01/09 02:56:43;;;;;;;1.67;0.65;;;;;;;17.45;61.70;95149.84;10379706;28;20303;-26
2023/01/09 03:02:00;;;;;;;2.25;0.70;;;;;;;17.44;61.18;95160.81;10375053;28;20033;-26
2023/01/09 03:07:34;;;;;;;1.20;0.70;;;;;;;17.43;61.53;95181.94;10379700;28;20328;-24
2023/01/09 03:12:37;;;;;;;1.50;0.75;;;;;;;17.41;62.01;95188.72;10379818;28;20060;-24
2023/01/09 03:17:41;;;;;;;1.45;0.60;;;;;;;17.43;61.32;95202.16;10365609;28;20034;-27
2023/01/09 03:22:53;;;;;;;3.40;2.63;;;;;;;17.41;61.75;95229.19;10371801;28;20040;-26
2023/01/09 03:28:01;;;;;;;1.95;0.70;;;;;;;17.41;61.75;95244.38;10371961;28;20038;-25
2023/01/09 03:33:01;;;;;;;1.40;0.73;;;;;;;17.41;61.90;95249.44;10381801;28;20420;-26
2023/01/09 03:38:01;;;;;;;2.23;0.90;;;;;;;17.38;62.10;95255.38;10377937;28;20025;-26
2023/01/09 03:43:02;;;;;;;1.07;0.83;;;;;;;17.33;62.05;95279.06;10378689;28;20037;-25
2023/01/09 03:48:03;;;;;;;1.35;0.80;;;;;;;17.37;61.55;95303.47;10373927;28;20056;-27
2023/01/09 03:53:03;;;;;;;3.22;1.15;;;;;;;17.39;61.65;95327.88;10372302;28;20034;-25
2023/01/09 03:58:03;;;;;;;1.83;0.70;;;;;;;17.43;62.00;95338.78;10373780;28;20057;-25
2023/01/09 04:03:04;;;;;;;4.40;0.90;;;;;;;17.44;61.90;95336.22;10372845;28;20053;-26
2023/01/09 04:08:04;;;;;;;2.63;0.90;;;;;;;17.40;62.03;95348.97;10360397;28;20025;-26
2023/01/09 04:13:05;;;;;;;2.45;0.95;;;;;;;17.36;61.99;95370.09;10370479;28;20305;-25
2023/01/09 04:18:05;;;;;;;2.17;0.60;;;;;;;17.36;61.97;95359.97;10369452;28;20029;-25
2023/01/09 04:23:06;;;;;;;1.20;0.60;;;;;;;17.36;62.05;95373.47;10388115;28;20039;-26
2023/01/09 04:28:06;;;;;;;2.40;0.85;;;;;;;17.37;62.01;95379.34;10369247;28;20485;-27
2023/01/09 04:33:06;;;;;;;1.60;0.63;;;;;;;17.33;62.10;95408.06;10381363;28;20034;-26
2023/01/09 04:38:07;;;;;;;1.57;1.00;;;;;;;17.34;61.72;95430.78;10369903;28;20030;-25
2023/01/09 04:43:07;;;;;;;1.20;0.90;;;;;;;17.37;61.78;95442.59;10376222;28;20030;-25
2023/01/09 04:48:07;;;;;;;3.03;0.80;;;;;;;17.39;60.84;95443.38;10368226;28;20038;-25
2023/01/09 04:53:08;;;;;;;1.43;0.67;;;;;;;17.28;62.51;95461.25;10329900;28;20033;-26
2023/01/09 04:58:08;;;;;;;3.40;0.87;;;;;;;17.31;61.50;95475.56;10339891;28;20025;-26
2023/01/09 05:03:08;;;;;;;2.40;0.80;;;;;;;17.43;60.05;95495.63;10337550;28;20038;-26
2023/01/09 05:08:09;;;;;;;0.83;0.60;;;;;;;17.46;58.18;95487.97;10338077;28;20116;-25
2023/01/09 05:13:09;;;;;;;0.63;0.50;;;;;;;17.48;57.68;95504.00;10348142;28;20294;-28
2023/01/09 05:18:09;;;;;;;1.83;0.60;;;;;;;17.46;56.66;95521.72;10342946;28;20041;-25
2023/01/09 05:23:10;;;;;;;4.03;1.70;;;;;;;17.42;57.24;95521.78;10374914;28;20100;-26
2023/01/09 05:28:10;;;;;;;2.20;0.60;;;;;;;17.44;57.77;95522.59;10369855;28;20291;-26
2023/01/09 05:33:11;;;;;;;0.80;0.70;;;;;;;17.42;55.78;95519.25;10379977;28;20077;-25
2023/01/09 05:38:11;;;;;;;1.40;0.70;;;;;;;17.26;57.35;95530.41;10371337;28;20485;-26
2023/01/09 05:43:11;;;;;;;2.43;0.50;;;;;;;17.33;55.82;95549.72;10363227;28;20513;-25
2023/01/09 05:48:12;;;;;;;1.37;0.33;;;;;;;17.34;56.41;95558.97;10377008;28;20033;-25
2023/01/09 05:53:12;;;;;;;1.37;0.47;;;;;;;17.29;55.13;95548.06;10370388;28;20301;-26
2023/01/09 05:58:12;;;;;;;1.17;0.57;;;;;;;17.38;55.99;95558.09;10355911;28;20034;-25
2023/01/09 06:03:13;;;;;;;1.67;0.50;;;;;;;17.37;53.79;95566.53;10366048;28;20100;-25
2023/01/09 06:08:13;;;;;;;1.83;0.77;;;;;;;17.36;54.96;95559.81;10372678;28;20355;-25
2023/01/09 06:13:14;;;;;;;1.97;0.70;;;;;;;17.42;54.78;95564.78;10391975;28;20033;-25
2023/01/09 06:18:14;;;;;;;5.90;1.30;;;;;;;17.44;55.87;95563.06;10379522;28;20460;-25
2023/01/09 06:23:15;;;;;;;4.88;1.00;;;;;;;17.37;57.30;95547.16;10375395;28;20030;-27
2023/01/09 06:28:15;;;;;;;8.50;1.17;;;;;;;17.33;57.34;95537.88;10383449;28;20037;-27
2023/01/09 06:33:15;;;;;;;11.17;1.60;;;;;;;17.20;55.13;95538.09;10360740;28;20065;-26
2023/01/09 06:38:16;;;;;;;4.37;1.20;;;;;;;17.31;57.24;95536.25;10364012;28;20644;-24
2023/01/09 06:43:16;;;;;;;4.17;1.00;;;;;;;17.30;57.26;95534.56;10366837;28;20026;-24
2023/01/09 06:48:17;;;;;;;4.50;0.80;;;;;;;17.29;57.04;95538.81;10381128;28;20306;-25
2023/01/09 06:53:17;;;;;;;4.93;1.43;;;;;;;17.30;57.89;95539.63;10383101;28;20767;-25
2023/01/09 06:58:18;;;;;;;2.10;1.00;;;;;;;17.28;57.81;95531.22;10374585;28;20378;-25
2023/01/09 07:03:20;;;;;;;2.97;0.93;;;;;;;17.26;57.80;95538.81;10380315;28;20205;-25
2023/01/09 07:08:21;;;;;;;4.78;1.30;;;;;;;17.26;57.67;95525.34;10372961;28;20382;-27
2023/01/09 07:13:21;;;;;;;1.70;0.70;;;;;;;17.22;57.72;95522.03;10386476;28;20034;-27
2023/01/09 07:18:22;;;;;;;3.90;0.90;;;;;;;17.19;57.76;95527.16;10372300;28;20037;-27
2023/01/09 07:23:22;;;;;;;3.35;1.02;;;;;;;17.30;56.75;95524.44;10386828;28;20039;-26
2023/01/09 07:28:22;;;;;;;1.30;0.67;;;;;;;17.32;57.00;95535.41;10368273;28;20038;-27
2023/01/09 07:33:23;;;;;;;5.83;0.97;;;;;;;17.25;57.15;95521.97;10367084;28;20468;-25
2023/01/09 07:38:23;;;;;;;3.43;1.00;;;;;;;17.22;57.38;95513.59;10383308;28;20288;-27
2023/01/09 07:43:24;;;;;;;3.47;0.73;;;;;;;17.20;57.56;95515.31;10385437;28;20026;-27
2023/01/09 07:48:24;;;;;;;4.40;1.00;;;;;;;17.16;56.91;95508.66;10374953;28;20025;-24
2023/01/09 07:53:24;;;;;;;4.90;1.17;;;;;;;17.15;57.56;95499.41;10381514;28;20296;-26
2023/01/09 07:58:25;;;;;;;2.73;1.07;;;;;;;17.15;56.50;95494.34;10384850;28;20318;-26
2023/01/09 08:03:25;;;;;;;4.00;1.57;;;;;;;17.10;57.02;95493.56;10375079;28;20033;-26
2023/01/09 08:08:26;;;;;;;2.05;0.70;;;;;;;17.10;56.97;95503.66;10400181;28;20044;-26
2023/01/09 08:13:26;;;;;;;3.33;0.60;;;;;;;17.11;56.45;95497.75;10381378;28;20033;-26
2023/01/09 08:18:27;;;;;;;1.67;0.70;;;;;;;17.09;56.84;95510.41;10376946;28;20030;-26
2023/01/09 08:23:27;;;;;;;3.40;0.50;;;;;;;17.11;56.85;95497.75;10395931;28;20018;-27
2023/01/09 08:28:27;;;;;;;3.33;0.70;;;;;;;17.11;56.79;95510.41;10380097;28;20042;-26
2023/01/09 08:33:28;;;;;;;2.80;0.60;;;;;;;17.16;56.17;95511.19;10388242;28;20041;-25
2023/01/09 08:38:28;;;;;;;1.40;0.47;;;;;;;17.19;57.09;95517.03;10385851;28;20107;-24
2023/01/09 08:48:48;;;;;;;1.35;0.52;;;;;;;17.07;56.73;95519.72;10388898;28;20141;-25
2023/01/09 08:53:48;;;;;;;1.88;0.73;;;;;;;17.01;56.26;95503.81;10383270;28;20677;-25
2023/01/09 08:58:48;;;;;;;2.33;0.90;;;;;;;17.04;56.64;95518.91;10374547;28;20485;-25
2023/01/09 09:03:49;;;;;;;3.10;0.70;;;;;;;17.02;56.10;95508.84;10387397;28;20596;-28
2023/01/09 09:08:49;;;;;;;2.53;0.70;;;;;;;17.00;56.31;95512.25;10392188;28;20054;-27
2023/01/09 09:13:49;;;;;;;1.90;0.53;;;;;;;17.00;55.62;95518.13;10376154;28;20041;-27
2023/01/09 09:18:50;;;;;;;1.00;0.63;;;;;;;17.00;55.28;95530.75;10366171;28;20034;-25
2023/01/09 09:23:50;;;;;;;3.63;1.10;;;;;;;17.01;55.31;95546.78;10379766;28;20042;-26
2023/01/09 09:28:51;;;;;;;4.68;1.00;;;;;;;16.98;55.22;95542.59;10372384;28;20406;-25
2023/01/09 09:33:51;;;;;;;2.13;0.70;;;;;;;16.97;53.86;95527.44;10379718;28;20041;-25
2023/01/09 09:38:51;;;;;;;1.43;0.53;;;;;;;17.05;52.25;95533.22;10382587;28;20041;-26
2023/01/09 09:49:26;;;;;;;3.08;0.73;;;;;;;17.10;54.58;95547.50;10388271;28;20118;-25
2023/01/09 09:54:39;;;;;;;2.10;0.85;;;;;;;17.07;54.06;95551.75;10389701;28;20037;-25
2023/01/09 09:59:41;;;;;;;1.23;0.90;;;;;;;17.02;54.31;95553.50;10381394;28;20163;-25
2023/01/09 10:04:47;;;;;;;1.33;0.47;;;;;;;17.04;54.53;95564.44;10385454;28;20029;-26
2023/01/09 10:09:53;;;;;;;1.70;0.63;;;;;;;17.00;54.42;95561.09;10380038;28;20064;-24
2023/01/09 10:14:56;;;;;;;2.13;0.70;;;;;;;16.98;54.46;95556.94;10385767;28;20038;-25
2023/01/09 10:20:06;;;;;;;3.30;0.75;;;;;;;16.99;54.31;95545.97;10383112;28;20303;-25
2023/01/09 10:25:35;;;;;;;1.92;0.60;;;;;;;16.97;54.11;95542.59;10367372;28;20062;-27
2023/01/09 10:30:47;;;;;;;1.42;0.63;;;;;;;16.95;54.38;95567.94;10393767;28;20516;-25
2023/01/09 10:36:15;;;;;;;2.03;0.50;;;;;;;16.97;54.11;95551.03;10368805;28;20029;-26
2023/01/09 10:41:30;;;;;;;1.77;0.75;;;;;;;16.98;53.91;95572.13;10373387;28;20034;-24
2023/01/09 10:46:40;;;;;;;1.77;0.80;;;;;;;16.96;54.01;95564.53;10375314;28;20033;-25
2023/01/09 10:51:50;;;;;;;1.23;0.50;;;;;;;17.05;54.80;95534.06;10381119;28;20395;-25
2023/01/09 10:57:05;;;;;;;1.88;0.80;;;;;;;17.10;54.41;95526.44;10381865;28;20064;-25
2023/01/09 11:02:41;;;;;;;2.60;0.70;;;;;;;17.03;54.24;95524.84;10380834;28;20037;-25
2023/01/09 11:07:44;;;;;;;1.42;0.70;;;;;;;16.93;54.30;95523.28;10372504;28;20041;-31
2023/01/09 11:12:46;;;;;;;2.55;0.50;;;;;;;16.95;54.02;95557.81;10382076;28;20053;-25
2023/01/09 11:17:50;;;;;;;3.13;0.73;;;;;;;16.96;53.93;95573.81;10389546;28;20040;-24
2023/01/09 11:22:53;;;;;;;2.85;0.70;;;;;;;17.00;53.06;95542.59;10376615;28;20029;-26
2023/01/09 11:28:00;;;;;;;1.92;0.60;;;;;;;17.06;52.62;95553.44;10378625;28;20095;-27
2023/01/09 11:33:12;;;;;;;0.87;0.60;;;;;;;17.09;52.09;95560.16;10363619;28;20038;-25
2023/01/09 11:38:15;;;;;;;2.63;0.60;;;;;;;17.16;51.49;95561.75;10358632;28;20297;-25
2023/01/09 11:43:18;;;;;;;2.25;0.60;;;;;;;17.11;51.72;95559.28;10373752;28;20513;-25
2023/01/09 11:48:28;;;;;;;2.53;0.57;;;;;;;17.21;50.77;95582.75;10382957;28;20041;-26
2023/01/09 11:53:43;;;;;;;1.90;0.77;;;;;;;17.25;50.74;95566.69;10378657;28;20057;-25
2023/01/09 11:58:43;;;;;;;1.73;0.45;;;;;;;17.27;51.46;95560.75;10374094;28;20021;-27
2023/01/09 12:04:03;;;;;;;0.80;0.47;;;;;;;17.32;52.08;95563.22;10369169;28;20026;-26
2023/01/09 12:09:19;;;;;;;3.72;0.75;;;;;;;17.30;51.62;95564.91;10372167;28;20099;-25
2023/01/09 12:14:31;;;;;;;0.67;0.50;;;;;;;17.26;53.00;95588.59;10382288;28;20043;-25
2023/01/09 12:19:58;;;;;;;1.83;0.50;;;;;;;17.29;51.40;95564.09;10370017;28;20308;-27
2023/01/09 12:25:28;;;;;;;2.03;0.77;;;;;;;17.26;51.76;95583.53;10364694;28;20041;-30
2023/01/09 12:31:16;;;;;;;1.85;1.17;;;;;;;17.23;51.41;95581.88;10379821;28;20099;-25
2023/01/09 12:36:31;;;;;;;4.60;2.67;;;;;;;17.23;51.85;95588.66;10284087;28;20589;-25
2023/01/09 12:42:00;;;;;;;5.43;3.15;;;;;;;17.22;51.33;95581.88;10355344;28;20060;-27
2023/01/09 12:47:25;;;;;;;6.57;4.50;;;;;;;17.18;53.03;95582.78;10388869;28;20050;-27
2023/01/09 12:52:35;;;;;;;5.47;3.03;;;;;;;17.16;52.39;95602.22;10375118;28;20538;-26
2023/01/09 12:57:43;;;;;;;5.35;3.80;;;;;;;17.18;52.45;95577.75;10385703;28;20485;-25
2023/01/09 13:03:13;;;;;;;7.45;4.63;;;;;;;17.20;53.12;95581.06;10378542;28;20052;-26
2023/01/09 13:08:21;;;;;;;4.47;2.83;;;;;;;17.21;50.90;95570.94;10343195;28;20093;-26
2023/01/09 13:13:40;;;;;;;8.70;6.20;;;;;;;17.21;51.19;95570.94;10376596;28;20037;-26
2023/01/09 13:18:56;;;;;;;7.68;4.03;;;;;;;17.24;52.96;95575.13;10381726;28;20033;-25
2023/01/09 13:24:04;;;;;;;6.97;4.70;;;;;;;17.18;53.49;95560.03;10391378;28;20040;-25
2023/01/09 13:29:23;;;;;;;5.32;3.72;;;;;;;17.17;54.14;95558.38;10365875;28;20069;-25
2023/01/09 13:34:27;;;;;;;5.50;4.30;;;;;;;17.15;54.64;95595.50;10382024;28;20029;-26
2023/01/09 13:39:36;;;;;;;5.85;3.70;;;;;;;17.13;52.31;95613.19;10388426;28;20096;-25
2023/01/09 13:44:36;;;;;;;8.35;4.10;;;;;;;17.05;53.00;95599.81;10384335;28;20057;-25
2023/01/09 13:49:40;;;;;;;5.00;2.92;;;;;;;17.15;52.79;95603.91;10383245;28;20030;-27
2023/01/09 13:54:58;;;;;;;5.85;3.03;;;;;;;17.12;52.58;95615.75;10386736;28;20033;-26
2023/01/09 14:00:20;;;;;;;3.88;2.92;;;;;;;17.11;53.22;95626.72;10382108;28;20040;-26
2023/01/09 14:05:24;;;;;;;6.90;2.65;;;;;;;17.08;53.66;95629.28;10371353;28;20370;-25
2023/01/09 14:10:27;;;;;;;8.50;2.85;;;;;;;17.12;53.68;95635.97;10382607;28;20045;-25
2023/01/09 14:15:31;;;;;;;5.57;3.40;;;;;;;17.12;53.96;95641.03;10379194;28;20051;-26
2023/01/09 14:20:38;;;;;;;10.85;3.40;;;;;;;17.15;53.92;95651.94;10381263;28;20033;-26
2023/01/09 14:25:38;;;;;;;6.65;3.55;;;;;;;17.18;53.64;95656.13;10381957;28;20117;-27
2023/01/09 14:30:51;;;;;;;4.10;2.60;;;;;;;17.18;53.18;95656.13;10368291;28;20030;-27
2023/01/09 14:36:20;;;;;;;5.40;2.53;;;;;;;17.15;54.03;95666.31;10379326;28;20388;-27
2023/01/09 14:46:55;;;;;;;6.25;2.60;;;;;;;17.03;53.20;95691.69;10387703;28;20037;-27
2023/01/09 14:51:59;;;;;;;4.75;2.40;;;;;;;17.08;53.26;95689.97;10364906;28;20034;-26
2023/01/09 14:57:02;;;;;;;5.53;2.40;;;;;;;17.06;53.73;95711.91;10382105;28;20444;-26
2023/01/09 15:02:03;;;;;;;3.50;1.98;;;;;;;17.02;52.28;95705.22;10373712;28;20033;-28
2023/01/09 15:07:04;;;;;;;5.43;2.50;;;;;;;17.03;53.24;95706.88;10368979;28;20103;-26
2023/01/09 15:12:08;;;;;;;3.97;2.00;;;;;;;17.04;53.05;95729.63;10378136;28;20022;-28
2023/01/09 15:17:20;;;;;;;4.88;2.17;;;;;;;17.06;52.21;95739.75;10371111;28;20041;-26
2023/01/09 15:22:22;;;;;;;11.35;2.28;;;;;;;16.78;49.76;95761.03;10369159;28;20367;-26
2023/01/09 15:27:23;;;;;;;6.97;2.97;;;;;;;16.97;51.44;95771.00;10388056;28;20133;-25
2023/01/09 15:32:27;;;;;;;7.47;3.40;;;;;;;17.05;53.50;95786.06;10382797;28;20063;-26
2023/01/09 15:37:32;;;;;;;8.07;3.13;;;;;;;17.06;54.44;95788.59;10385521;28;20061;-26
2023/01/09 15:42:56;;;;;;;7.03;3.10;;;;;;;17.09;53.12;95792.78;10371059;28;20040;-25
2023/01/09 15:48:31;;;;;;;8.18;2.75;;;;;;;17.09;52.94;95797.84;10380214;28;20849;-26
2023/01/09 15:53:33;;;;;;;4.57;2.67;;;;;;;17.08;52.06;95812.16;10387838;28;20120;-26
2023/01/09 15:58:35;;;;;;;3.70;2.53;;;;;;;17.06;53.68;95823.19;10387234;28;20400;-26
2023/01/09 16:03:37;;;;;;;3.63;2.58;;;;;;;17.10;53.29;95824.81;10363693;28;20046;-28
2023/01/09 16:08:48;;;;;;;4.53;2.25;;;;;;;17.10;53.06;95833.25;10374497;28;20095;-26
2023/01/09 16:13:49;;;;;;;3.33;2.45;;;;;;;17.06;53.46;95840.88;10378689;28;20034;-26
2023/01/09 16:18:51;;;;;;;4.22;2.53;;;;;;;17.07;53.37;95856.00;10380391;28;20029;-25
2023/01/09 16:24:13;;;;;;;4.93;2.85;;;;;;;17.08;54.74;95859.41;10389266;28;20025;-26
2023/01/09 16:29:35;;;;;;;3.55;2.22;;;;;;;17.17;52.53;95864.38;10367845;28;20069;-27
2023/01/09 16:34:40;;;;;;;6.63;2.67;;;;;;;17.08;54.70;95869.50;10369790;28;20033;-27
2023/01/09 16:39:43;;;;;;;4.55;2.60;;;;;;;17.17;53.97;95877.84;10367011;28;20440;-25
2023/01/09 16:44:43;;;;;;;5.35;3.35;;;;;;;17.20;55.16;95890.50;10387275;28;20109;-26
2023/01/09 16:49:46;;;;;;;4.83;3.37;;;;;;;17.26;53.01;95892.13;10375162;28;20478;-25
2023/01/09 16:54:46;;;;;;;4.80;2.78;;;;;;;17.28;52.47;95901.38;10408113;28;20300;-27
2023/01/09 16:59:47;;;;;;;6.33;2.80;;;;;;;17.25;54.87;95905.63;10385769;28;20029;-27
2023/01/09 17:04:47;;;;;;;3.95;2.47;;;;;;;17.26;52.15;95908.13;10369448;28;20287;-26
2023/01/09 17:09:48;;;;;;;5.97;2.80;;;;;;;17.30;51.69;95909.78;10388984;28;20103;-26
2023/01/09 17:14:49;;;;;;;3.93;2.90;;;;;;;17.30;52.03;95917.38;10370468;28;20041;-26
2023/01/09 17:19:49;;;;;;;3.75;2.40;;;;;;;17.26;54.73;95935.13;10378857;28;20103;-26
2023/01/09 17:30:10;;;;;;;8.85;3.08;;;;;;;17.18;55.22;95941.94;10392117;28;20030;-26
2023/01/09 17:35:11;;;;;;;3.22;2.25;;;;;;;17.23;52.25;95952.88;10387565;28;20034;-27
2023/01/09 17:40:21;;;;;;;6.53;2.83;;;;;;;17.23;54.48;95952.88;10382155;28;20122;-25
2023/01/09 17:45:21;;;;;;;5.47;2.50;;;;;;;17.24;54.15;95964.66;10389638;28;20048;-27
2023/01/09 17:50:27;;;;;;;4.17;2.80;;;;;;;17.25;56.13;95972.22;10387307;28;20417;-26
2023/01/09 17:55:27;;;;;;;5.55;3.15;;;;;;;17.29;55.25;95978.09;10385291;28;20551;-27
2023/01/09 18:00:31;;;;;;;4.65;2.75;;;;;;;17.34;56.49;95981.44;10384029;28;20033;-27
2023/01/09 18:05:32;;;;;;;3.40;2.30;;;;;;;17.34;56.73;95994.09;10368793;28;20029;-27
2023/01/09 18:10:33;;;;;;;6.22;3.35;;;;;;;17.32;57.27;96008.44;10379577;28;20061;-27
2023/01/09 18:15:33;;;;;;;7.80;3.80;;;;;;;17.36;55.44;96017.72;10378464;28;20643;-25
2023/01/09 18:20:37;;;;;;;5.53;3.30;;;;;;;17.32;55.48;96021.09;10371073;28;20022;-26
2023/01/09 18:25:42;;;;;;;10.30;3.20;;;;;;;17.28;57.26;96027.88;10358641;28;20385;-25
2023/01/09 18:30:44;;;;;;;10.00;3.70;;;;;;;17.35;55.76;96039.63;10375377;28;20038;-27
2023/01/09 18:35:44;;;;;;;7.20;3.47;;;;;;;17.37;55.98;96032.03;10364282;28;20066;-26
2023/01/09 18:40:45;;;;;;;8.10;3.67;;;;;;;17.37;57.45;96037.09;10365992;28;20064;-26
2023/01/09 18:45:46;;;;;;;11.63;4.28;;;;;;;17.38;57.52;96048.91;10364571;28;20029;-27
2023/01/09 18:50:46;;;;;;;10.60;3.80;;;;;;;17.34;56.27;96058.16;10368633;28;20029;-25
2023/01/09 18:55:46;;;;;;;9.50;4.00;;;;;;;17.34;57.70;96072.53;10361026;28;20048;-26
2023/01/09 19:00:49;;;;;;;6.00;3.50;;;;;;;17.35;58.27;96080.09;10381913;28;20029;-26
2023/01/09 19:05:49;;;;;;;5.05;3.15;;;;;;;17.37;57.53;96092.75;10377260;28;20033;-26
2023/01/09 19:10:52;;;;;;;8.10;3.97;;;;;;;17.39;58.22;96098.66;10376212;28;20032;-26
2023/01/09 19:15:57;;;;;;;8.70;3.88;;;;;;;17.39;58.60;96109.63;10381576;28;20056;-27
2023/01/09 19:20:57;;;;;;;8.18;3.88;;;;;;;17.40;57.47;96102.88;10368080;28;20040;-26
2023/01/09 19:26:03;;;;;;;5.93;3.83;;;;;;;17.39;56.30;96098.66;10368568;28;20038;-26
2023/01/09 19:31:04;;;;;;;7.17;3.63;;;;;;;17.39;56.91;96096.97;10363873;28;20136;-26
2023/01/09 19:36:04;;;;;;;7.97;3.30;;;;;;;17.39;56.91;96098.66;10385837;28;20043;-27
2023/01/09 19:41:11;;;;;;;4.85;3.35;;;;;;;17.37;57.38;96102.88;10366421;28;20042;-26
2023/01/09 19:46:18;;;;;;;8.00;3.42;;;;;;;17.34;58.75;96107.94;10378830;28;20057;-27
2023/01/09 19:51:20;;;;;;;7.68;4.03;;;;;;;17.33;59.30;96116.38;10380354;28;20042;-26
2023/01/09 19:56:22;;;;;;;8.55;3.65;;;;;;;17.34;58.86;96128.19;10391820;28;20475;-25
2023/01/09 20:01:26;;;;;;;7.95;3.38;;;;;;;17.32;57.82;96129.88;10387253;28;20053;-26
2023/01/09 20:06:26;;;;;;;5.30;3.10;;;;;;;17.33;58.01;96136.63;10376732;28;20042;-26
2023/01/09 20:11:29;;;;;;;5.43;3.10;;;;;;;17.31;58.26;96134.09;10375605;28;20099;-25
2023/01/09 20:16:30;;;;;;;4.82;3.15;;;;;;;17.30;59.03;96144.19;10387273;28;20029;-27
2023/01/09 20:21:30;;;;;;;7.30;3.03;;;;;;;17.34;58.87;96135.78;10353036;28;20042;-27
2023/01/09 20:26:35;;;;;;;6.28;3.28;;;;;;;17.34;59.73;96134.06;10377613;28;20284;-27
2023/01/09 20:31:35;;;;;;;5.88;3.05;;;;;;;17.39;57.89;96141.66;10368614;28;20045;-26
2023/01/09 20:36:36;;;;;;;5.15;2.58;;;;;;;17.39;57.43;96136.59;10397149;28;20475;-26
2023/01/09 20:41:36;;;;;;;6.30;2.93;;;;;;;17.36;58.14;96132.41;10387910;28;20045;-26
2023/01/09 20:46:39;;;;;;;5.10;3.33;;;;;;;17.37;57.64;96143.38;10384071;28;20091;-26
2023/01/09 20:51:46;;;;;;;5.75;2.92;;;;;;;17.37;58.75;96156.88;10363184;28;20446;-26
2023/01/09 20:56:46;;;;;;;4.13;2.70;;;;;;;17.35;58.34;96157.69;10385633;28;20065;-26
2023/01/09 21:01:47;;;;;;;4.00;2.57;;;;;;;17.36;57.63;96162.78;10383164;28;20034;-27
2023/01/09 21:06:47;;;;;;;7.10;2.40;;;;;;;17.25;60.78;96161.13;10372596;28;20105;-26
2023/01/09 21:11:47;;;;;;;5.60;2.40;;;;;;;17.16;60.75;96171.28;10375549;28;20495;-27
2023/01/09 21:16:49;;;;;;;11.53;2.97;;;;;;;17.18;60.48;96174.63;10384906;28;20048;-27
2023/01/09 21:21:49;;;;;;;5.40;2.90;;;;;;;17.22;60.11;96178.81;10377649;28;20301;-26
2023/01/09 21:26:49;;;;;;;7.30;2.60;;;;;;;17.22;60.27;96184.72;10380006;28;20515;-27
2023/01/09 21:31:50;;;;;;;7.17;2.83;;;;;;;17.31;60.20;96188.91;10376718;28;20518;-26
2023/01/09 21:36:50;;;;;;;5.90;2.77;;;;;;;17.36;59.93;96202.41;10396726;28;20551;-26
2023/01/09 21:47:11;;;;;;;5.60;2.97;;;;;;;17.26;60.58;96220.97;10391775;28;20042;-26
2023/01/09 21:52:12;;;;;;;4.27;2.53;;;;;;;17.21;60.54;96200.75;10363076;28;20728;-27
2023/01/09 21:57:13;;;;;;;4.40;2.33;;;;;;;17.23;60.44;96221.00;10380005;28;20025;-27
2023/01/09 22:02:14;;;;;;;6.40;2.37;;;;;;;17.20;60.86;96218.44;10382547;28;20037;-26
2023/01/09 22:07:15;;;;;;;4.47;2.42;;;;;;;17.22;61.05;96244.56;10363869;28;20141;-26
2023/01/09 22:12:15;;;;;;;3.50;2.08;;;;;;;17.22;60.74;96254.69;10391653;28;20121;-28
2023/01/09 22:17:16;;;;;;;5.20;2.50;;;;;;;17.16;61.18;96259.78;10383970;28;20027;-26
2023/01/09 22:22:16;;;;;;;7.87;2.60;;;;;;;17.20;60.96;96276.63;10380478;28;20044;-27
2023/01/09 22:27:16;;;;;;;4.33;2.77;;;;;;;17.17;61.03;96292.66;10388074;28;20128;-26
2023/01/09 22:32:17;;;;;;;4.63;2.30;;;;;;;17.19;61.08;96308.69;10386884;28;20552;-27
2023/01/09 22:37:20;;;;;;;5.20;2.58;;;;;;;17.14;61.18;96301.97;10384485;28;20032;-26
2023/01/09 22:42:21;;;;;;;5.22;2.40;;;;;;;17.25;60.09;96312.91;10367991;28;20052;-26
2023/01/09 22:47:21;;;;;;;5.33;2.83;;;;;;;17.28;61.03;96325.53;10380639;28;20400;-27
2023/01/09 22:52:22;;;;;;;5.50;2.13;;;;;;;17.28;60.94;96325.53;10352586;28;20536;-29
2023/01/09 22:57:23;;;;;;;5.97;2.45;;;;;;;17.23;60.73;96350.84;10380228;28;20029;-26
2023/01/09 23:02:23;;;;;;;4.38;2.53;;;;;;;17.19;60.97;96360.94;10378636;28;20494;-27
2023/01/09 23:07:24;;;;;;;4.10;2.15;;;;;;;17.18;61.01;96359.28;10371451;28;20454;-26
2023/01/09 23:12:24;;;;;;;10.20;3.35;;;;;;;17.18;61.08;96374.44;10380454;28;20040;-26
2023/01/09 23:17:24;;;;;;;4.17;2.27;;;;;;;17.18;61.52;96366.88;10386613;28;20040;-26
2023/01/09 23:22:25;;;;;;;6.80;2.60;;;;;;;17.08;61.04;96372.78;10381228;28;20116;-27
2023/01/09 23:27:25;;;;;;;2.30;1.63;;;;;;;17.16;60.95;96392.16;10384361;28;20509;-26
2023/01/09 23:32:25;;;;;;;4.33;2.57;;;;;;;17.13;60.89;96409.00;10383762;28;20408;-27
2023/01/09 23:37:26;;;;;;;4.27;2.43;;;;;;;17.14;60.96;96393.84;10390340;28;20040;-26
2023/01/09 23:47:47;;;;;;;4.00;2.40;;;;;;;17.15;60.90;96415.75;10362588;28;20049;-25
2023/01/09 23:52:47;;;;;;;4.63;1.80;;;;;;;17.20;60.43;96419.16;10371546;28;20034;-27
2023/01/09 23:57:53;;;;;;;3.67;1.97;;;;;;;17.22;60.87;96432.63;10392005;28;20033;-26
